sensor_id;sensor_type;location;lat;lon;timestamp;temperature;humidity
17092;DHT22;8661;45.700;4.880;2024-01-15T00:00:28;4.10;99.90
17092;DHT22;8661;45.700;4.880;2024-01-15T00:02:55;4.10;99.90
17092;DHT22;8661;45.700;4.880;2024-01-15T00:05:22;4.10;99.90
17092;DHT22;8661;45.700;4.880;2024-01-15T00:07:49;4.10;99.90
17092;DHT22;8661;45.700;4.880;2024-01-15T00:10:16;4.10;99.90
17092;DHT22;8661;45.700;4.880;2024-01-15T00:12:44;4.10;99.90
17092;DHT22;8661;45.700;4.880;2024-01-15T00:15:11;4.10;99.90
17092;DHT22;8661;45.700;4.880;2024-01-15T00:17:38;4.10;99.90
17092;DHT22;8661;45.700;4.880;2024-01-15T00:20:07;4.20;99.90
17092;DHT22;8661;45.700;4.880;2024-01-15T00:22:34;4.10;99.90
17092;DHT22;8661;45.700;4.880;2024-01-15T00:25:01;4.10;99.90
17092;DHT22;8661;45.700;4.880;2024-01-15T00:27:28;4.10;99.90
17092;DHT22;8661;45.700;4.880;2024-01-15T00:29:57;4.10;99.90
17092;DHT22;8661;45.700;4.880;2024-01-15T00:32:24;4.10;99.90
17092;DHT22;8661;45.700;4.880;2024-01-15T00:34:50;4.10;99.90
17092;DHT22;8661;45.700;4.880;2024-01-15T00:37:17;4.10;99.90
17092;DHT22;8661;45.700;4.880;2024-01-15T00:39:44;4.20;99.90
17092;DHT22;8661;45.700;4.880;2024-01-15T00:42:11;4.10;99.90
17092;DHT22;8661;45.700;4.880;2024-01-15T00:44:38;4.20;99.90
17092;DHT22;8661;45.700;4.880;2024-01-15T00:47:06;4.20;99.90
17092;DHT22;8661;45.700;4.880;2024-01-15T00:49:33;4.20;99.90
17092;DHT22;8661;45.700;4.880;2024-01-15T00:52:00;4.20;99.90
17092;DHT22;8661;45.700;4.880;2024-01-15T00:54:27;4.20;99.90
17092;DHT22;8661;45.700;4.880;2024-01-15T00:56:54;4.20;99.90
17092;DHT22;8661;45.700;4.880;2024-01-15T00:59:21;4.20;99.90
17092;DHT22;8661;45.700;4.880;2024-01-15T01:01:48;4.20;99.90
17092;DHT22;8661;45.700;4.880;2024-01-15T01:04:16;4.20;99.90
17092;DHT22;8661;45.700;4.880;2024-01-15T01:06:43;4.20;99.90
17092;DHT22;8661;45.700;4.880;2024-01-15T01:09:10;4.20;99.90
17092;DHT22;8661;45.700;4.880;2024-01-15T01:11:37;4.20;99.90
17092;DHT22;8661;45.700;4.880;2024-01-15T01:14:04;4.20;99.90
17092;DHT22;8661;45.700;4.880;2024-01-15T01:16:31;4.20;99.90
17092;DHT22;8661;45.700;4.880;2024-01-15T01:19:04;4.20;99.90
17092;DHT22;8661;45.700;4.880;2024-01-15T01:21:32;4.20;99.90
17092;DHT22;8661;45.700;4.880;2024-01-15T01:24:00;4.20;99.90
17092;DHT22;8661;45.700;4.880;2024-01-15T01:26:26;4.20;99.90
17092;DHT22;8661;45.700;4.880;2024-01-15T01:28:53;4.20;99.90
17092;DHT22;8661;45.700;4.880;2024-01-15T01:31:20;4.20;99.90
17092;DHT22;8661;45.700;4.880;2024-01-15T01:33:47;4.20;99.90
17092;DHT22;8661;45.700;4.880;2024-01-15T01:36:14;4.20;99.90
17092;DHT22;8661;45.700;4.880;2024-01-15T01:38:42;4.20;99.90
17092;DHT22;8661;45.700;4.880;2024-01-15T01:41:09;4.20;99.90
17092;DHT22;8661;45.700;4.880;2024-01-15T01:43:36;4.20;99.90
17092;DHT22;8661;45.700;4.880;2024-01-15T01:46:03;4.20;99.90
17092;DHT22;8661;45.700;4.880;2024-01-15T01:48:31;4.20;99.90
17092;DHT22;8661;45.700;4.880;2024-01-15T01:51:01;4.20;99.90
17092;DHT22;8661;45.700;4.880;2024-01-15T01:53:29;4.10;99.90
17092;DHT22;8661;45.700;4.880;2024-01-15T01:56:00;4.20;99.90
17092;DHT22;8661;45.700;4.880;2024-01-15T01:58:27;4.20;99.90
17092;DHT22;8661;45.700;4.880;2024-01-15T02:00:55;4.20;99.90
17092;DHT22;8661;45.700;4.880;2024-01-15T02:03:22;4.20;99.90
17092;DHT22;8661;45.700;4.880;2024-01-15T02:05:49;4.10;99.90
17092;DHT22;8661;45.700;4.880;2024-01-15T02:08:16;4.10;99.90
17092;DHT22;8661;45.700;4.880;2024-01-15T02:10:43;4.30;99.90
17092;DHT22;8661;45.700;4.880;2024-01-15T02:13:11;4.20;99.90
17092;DHT22;8661;45.700;4.880;2024-01-15T02:15:38;4.10;99.90
17092;DHT22;8661;45.700;4.880;2024-01-15T02:18:06;4.10;99.90
17092;DHT22;8661;45.700;4.880;2024-01-15T02:20:34;4.10;99.90
17092;DHT22;8661;45.700;4.880;2024-01-15T02:23:07;4.10;99.90
17092;DHT22;8661;45.700;4.880;2024-01-15T02:25:35;4.10;99.90
17092;DHT22;8661;45.700;4.880;2024-01-15T02:28:03;4.10;99.90
17092;DHT22;8661;45.700;4.880;2024-01-15T02:30:30;4.20;99.90
17092;DHT22;8661;45.700;4.880;2024-01-15T02:32:58;4.20;99.90
17092;DHT22;8661;45.700;4.880;2024-01-15T02:35:24;4.20;99.90
17092;DHT22;8661;45.700;4.880;2024-01-15T02:37:51;4.20;99.90
17092;DHT22;8661;45.700;4.880;2024-01-15T02:40:20;4.20;99.90
17092;DHT22;8661;45.700;4.880;2024-01-15T02:42:46;4.20;99.90
17092;DHT22;8661;45.700;4.880;2024-01-15T02:45:13;4.20;99.90
17092;DHT22;8661;45.700;4.880;2024-01-15T02:47:40;4.20;99.90
17092;DHT22;8661;45.700;4.880;2024-01-15T02:50:07;4.20;99.90
17092;DHT22;8661;45.700;4.880;2024-01-15T02:52:34;4.20;99.90
17092;DHT22;8661;45.700;4.880;2024-01-15T02:55:01;4.20;99.90
17092;DHT22;8661;45.700;4.880;2024-01-15T02:57:30;4.30;99.90
17092;DHT22;8661;45.700;4.880;2024-01-15T02:59:56;4.20;99.90
17092;DHT22;8661;45.700;4.880;2024-01-15T03:02:23;4.20;99.90
17092;DHT22;8661;45.700;4.880;2024-01-15T03:04:52;4.20;99.90
17092;DHT22;8661;45.700;4.880;2024-01-15T03:07:19;4.10;99.90
17092;DHT22;8661;45.700;4.880;2024-01-15T03:09:46;4.10;99.90
17092;DHT22;8661;45.700;4.880;2024-01-15T03:12:13;4.10;99.90
17092;DHT22;8661;45.700;4.880;2024-01-15T03:14:41;4.10;99.90
17092;DHT22;8661;45.700;4.880;2024-01-15T03:17:08;4.10;99.90
17092;DHT22;8661;45.700;4.880;2024-01-15T03:19:36;4.10;99.90
17092;DHT22;8661;45.700;4.880;2024-01-15T03:22:03;4.10;99.90
17092;DHT22;8661;45.700;4.880;2024-01-15T03:24:31;4.00;99.90
17092;DHT22;8661;45.700;4.880;2024-01-15T03:26:58;4.10;99.90
17092;DHT22;8661;45.700;4.880;2024-01-15T03:29:26;4.10;99.90
17092;DHT22;8661;45.700;4.880;2024-01-15T03:31:54;4.10;99.90
17092;DHT22;8661;45.700;4.880;2024-01-15T03:34:21;4.10;99.90
17092;DHT22;8661;45.700;4.880;2024-01-15T03:36:48;4.10;99.90
17092;DHT22;8661;45.700;4.880;2024-01-15T03:39:15;4.10;99.90
17092;DHT22;8661;45.700;4.880;2024-01-15T03:41:42;4.10;99.90
17092;DHT22;8661;45.700;4.880;2024-01-15T03:44:09;4.10;99.90
17092;DHT22;8661;45.700;4.880;2024-01-15T03:46:36;4.10;99.90
17092;DHT22;8661;45.700;4.880;2024-01-15T03:49:04;4.00;99.90
17092;DHT22;8661;45.700;4.880;2024-01-15T03:51:32;4.10;99.90
17092;DHT22;8661;45.700;4.880;2024-01-15T03:53:58;4.10;99.90
17092;DHT22;8661;45.700;4.880;2024-01-15T03:56:25;4.20;99.90
17092;DHT22;8661;45.700;4.880;2024-01-15T03:58:52;4.10;99.90
17092;DHT22;8661;45.700;4.880;2024-01-15T04:01:19;4.20;99.90
17092;DHT22;8661;45.700;4.880;2024-01-15T04:03:46;4.20;99.90
17092;DHT22;8661;45.700;4.880;2024-01-15T04:06:14;4.10;99.90
17092;DHT22;8661;45.700;4.880;2024-01-15T04:08:41;4.10;99.90
17092;DHT22;8661;45.700;4.880;2024-01-15T04:11:08;4.10;99.90
17092;DHT22;8661;45.700;4.880;2024-01-15T04:13:35;4.10;99.90
17092;DHT22;8661;45.700;4.880;2024-01-15T04:16:03;4.10;99.90
17092;DHT22;8661;45.700;4.880;2024-01-15T04:18:30;4.20;99.90
17092;DHT22;8661;45.700;4.880;2024-01-15T04:20:57;4.20;99.90
17092;DHT22;8661;45.700;4.880;2024-01-15T04:23:25;4.20;99.90
17092;DHT22;8661;45.700;4.880;2024-01-15T04:25:52;4.20;99.90
17092;DHT22;8661;45.700;4.880;2024-01-15T04:28:19;4.20;99.90
17092;DHT22;8661;45.700;4.880;2024-01-15T04:30:46;4.20;99.90
17092;DHT22;8661;45.700;4.880;2024-01-15T04:33:12;4.20;99.90
17092;DHT22;8661;45.700;4.880;2024-01-15T04:35:39;4.20;99.90
17092;DHT22;8661;45.700;4.880;2024-01-15T04:38:06;4.20;99.90
17092;DHT22;8661;45.700;4.880;2024-01-15T04:40:34;4.20;99.90
17092;DHT22;8661;45.700;4.880;2024-01-15T04:43:01;4.20;99.90
17092;DHT22;8661;45.700;4.880;2024-01-15T04:45:28;4.10;99.90
17092;DHT22;8661;45.700;4.880;2024-01-15T04:47:55;4.10;99.90
17092;DHT22;8661;45.700;4.880;2024-01-15T04:50:23;4.10;99.90
17092;DHT22;8661;45.700;4.880;2024-01-15T04:52:50;4.10;99.90
17092;DHT22;8661;45.700;4.880;2024-01-15T04:55:17;4.10;99.90
17092;DHT22;8661;45.700;4.880;2024-01-15T04:57:45;4.00;99.90
17092;DHT22;8661;45.700;4.880;2024-01-15T05:00:13;4.00;99.90
17092;DHT22;8661;45.700;4.880;2024-01-15T05:02:40;4.00;99.90
17092;DHT22;8661;45.700;4.880;2024-01-15T05:05:07;4.00;99.90
17092;DHT22;8661;45.700;4.880;2024-01-15T05:07:34;3.90;99.90
17092;DHT22;8661;45.700;4.880;2024-01-15T05:10:01;3.90;99.90
17092;DHT22;8661;45.700;4.880;2024-01-15T05:12:29;3.80;99.90
17092;DHT22;8661;45.700;4.880;2024-01-15T05:14:57;3.80;99.90
17092;DHT22;8661;45.700;4.880;2024-01-15T05:17:24;3.80;99.90
17092;DHT22;8661;45.700;4.880;2024-01-15T05:19:51;3.80;99.90
17092;DHT22;8661;45.700;4.880;2024-01-15T05:22:18;3.80;99.90
17092;DHT22;8661;45.700;4.880;2024-01-15T05:24:45;3.90;99.90
17092;DHT22;8661;45.700;4.880;2024-01-15T05:27:12;3.80;99.90
17092;DHT22;8661;45.700;4.880;2024-01-15T05:29:38;3.80;99.90
17092;DHT22;8661;45.700;4.880;2024-01-15T05:32:07;3.80;99.90
17092;DHT22;8661;45.700;4.880;2024-01-15T05:34:34;3.70;99.90
17092;DHT22;8661;45.700;4.880;2024-01-15T05:37:00;3.70;99.90
17092;DHT22;8661;45.700;4.880;2024-01-15T05:39:27;3.80;99.90
17092;DHT22;8661;45.700;4.880;2024-01-15T05:41:54;3.80;99.90
17092;DHT22;8661;45.700;4.880;2024-01-15T05:44:21;3.70;99.90
17092;DHT22;8661;45.700;4.880;2024-01-15T05:46:48;3.70;99.90
17092;DHT22;8661;45.700;4.880;2024-01-15T05:49:16;3.70;99.90
17092;DHT22;8661;45.700;4.880;2024-01-15T05:51:43;3.60;99.90
17092;DHT22;8661;45.700;4.880;2024-01-15T05:54:10;3.50;99.90
17092;DHT22;8661;45.700;4.880;2024-01-15T05:56:37;3.70;99.90
17092;DHT22;8661;45.700;4.880;2024-01-15T05:59:04;3.70;99.90
17092;DHT22;8661;45.700;4.880;2024-01-15T06:01:31;3.70;99.90
17092;DHT22;8661;45.700;4.880;2024-01-15T06:03:58;3.70;99.90
17092;DHT22;8661;45.700;4.880;2024-01-15T06:06:26;3.70;99.90
17092;DHT22;8661;45.700;4.880;2024-01-15T06:08:53;3.80;99.90
17092;DHT22;8661;45.700;4.880;2024-01-15T06:11:20;3.70;99.90
17092;DHT22;8661;45.700;4.880;2024-01-15T06:13:47;3.80;99.90
17092;DHT22;8661;45.700;4.880;2024-01-15T06:16:14;3.70;99.90
17092;DHT22;8661;45.700;4.880;2024-01-15T06:18:42;3.70;99.90
17092;DHT22;8661;45.700;4.880;2024-01-15T06:21:09;3.70;99.90
17092;DHT22;8661;45.700;4.880;2024-01-15T06:23:39;3.60;99.90
17092;DHT22;8661;45.700;4.880;2024-01-15T06:26:06;3.70;99.90
17092;DHT22;8661;45.700;4.880;2024-01-15T06:28:33;3.70;99.90
17092;DHT22;8661;45.700;4.880;2024-01-15T06:31:00;3.60;99.90
17092;DHT22;8661;45.700;4.880;2024-01-15T06:33:27;3.70;99.90
17092;DHT22;8661;45.700;4.880;2024-01-15T06:35:54;3.60;99.90
17092;DHT22;8661;45.700;4.880;2024-01-15T06:38:21;3.60;99.90
17092;DHT22;8661;45.700;4.880;2024-01-15T06:40:50;3.50;99.90
17092;DHT22;8661;45.700;4.880;2024-01-15T06:43:17;3.50;99.90
17092;DHT22;8661;45.700;4.880;2024-01-15T06:45:44;3.50;99.90
17092;DHT22;8661;45.700;4.880;2024-01-15T06:48:11;3.50;99.90
17092;DHT22;8661;45.700;4.880;2024-01-15T06:50:40;3.50;99.90
17092;DHT22;8661;45.700;4.880;2024-01-15T06:53:06;3.50;99.90
17092;DHT22;8661;45.700;4.880;2024-01-15T06:55:33;3.50;99.90
17092;DHT22;8661;45.700;4.880;2024-01-15T06:58:02;3.50;99.90
17092;DHT22;8661;45.700;4.880;2024-01-15T07:00:29;3.50;99.90
17092;DHT22;8661;45.700;4.880;2024-01-15T07:02:56;3.50;99.90
17092;DHT22;8661;45.700;4.880;2024-01-15T07:05:23;3.50;99.90
17092;DHT22;8661;45.700;4.880;2024-01-15T07:07:50;3.50;99.90
17092;DHT22;8661;45.700;4.880;2024-01-15T07:10:17;3.50;99.90
17092;DHT22;8661;45.700;4.880;2024-01-15T07:12:44;3.50;99.90
17092;DHT22;8661;45.700;4.880;2024-01-15T07:15:12;3.50;99.90
17092;DHT22;8661;45.700;4.880;2024-01-15T07:17:40;3.50;99.90
17092;DHT22;8661;45.700;4.880;2024-01-15T07:20:07;3.50;99.90
17092;DHT22;8661;45.700;4.880;2024-01-15T07:22:36;3.50;99.90
17092;DHT22;8661;45.700;4.880;2024-01-15T07:25:06;3.50;99.90
17092;DHT22;8661;45.700;4.880;2024-01-15T07:27:33;3.60;99.90
17092;DHT22;8661;45.700;4.880;2024-01-15T07:30:00;3.70;99.90
17092;DHT22;8661;45.700;4.880;2024-01-15T07:32:31;3.70;99.90
17092;DHT22;8661;45.700;4.880;2024-01-15T07:34:58;3.80;99.90
17092;DHT22;8661;45.700;4.880;2024-01-15T07:37:25;3.80;99.90
17092;DHT22;8661;45.700;4.880;2024-01-15T07:39:52;3.80;99.90
17092;DHT22;8661;45.700;4.880;2024-01-15T07:42:19;3.80;99.90
17092;DHT22;8661;45.700;4.880;2024-01-15T07:44:46;3.90;99.90
17092;DHT22;8661;45.700;4.880;2024-01-15T07:47:13;3.90;99.90
17092;DHT22;8661;45.700;4.880;2024-01-15T07:49:41;3.90;99.90
17092;DHT22;8661;45.700;4.880;2024-01-15T07:52:08;4.00;99.90
17092;DHT22;8661;45.700;4.880;2024-01-15T07:54:35;3.90;99.90
17092;DHT22;8661;45.700;4.880;2024-01-15T07:57:03;3.90;99.90
17092;DHT22;8661;45.700;4.880;2024-01-15T07:59:30;3.90;99.90
17092;DHT22;8661;45.700;4.880;2024-01-15T08:01:59;3.90;99.90
17092;DHT22;8661;45.700;4.880;2024-01-15T08:04:26;3.90;99.90
17092;DHT22;8661;45.700;4.880;2024-01-15T08:06:54;3.90;99.90
17092;DHT22;8661;45.700;4.880;2024-01-15T08:09:22;3.90;99.90
17092;DHT22;8661;45.700;4.880;2024-01-15T08:11:49;4.00;99.90
17092;DHT22;8661;45.700;4.880;2024-01-15T08:14:17;4.00;99.90
17092;DHT22;8661;45.700;4.880;2024-01-15T08:16:44;4.10;99.90
17092;DHT22;8661;45.700;4.880;2024-01-15T08:19:11;4.10;99.90
17092;DHT22;8661;45.700;4.880;2024-01-15T08:21:38;4.10;99.90
17092;DHT22;8661;45.700;4.880;2024-01-15T08:24:06;4.10;99.90
17092;DHT22;8661;45.700;4.880;2024-01-15T08:26:33;4.20;99.90
17092;DHT22;8661;45.700;4.880;2024-01-15T08:29:00;4.20;99.90
17092;DHT22;8661;45.700;4.880;2024-01-15T08:31:27;4.20;99.90
17092;DHT22;8661;45.700;4.880;2024-01-15T08:33:54;4.30;99.90
17092;DHT22;8661;45.700;4.880;2024-01-15T08:36:22;4.30;99.90
17092;DHT22;8661;45.700;4.880;2024-01-15T08:38:49;4.30;99.90
17092;DHT22;8661;45.700;4.880;2024-01-15T08:41:18;4.40;99.90
17092;DHT22;8661;45.700;4.880;2024-01-15T08:43:45;4.40;99.90
17092;DHT22;8661;45.700;4.880;2024-01-15T08:46:11;4.50;99.90
17092;DHT22;8661;45.700;4.880;2024-01-15T08:48:38;4.60;99.90
17092;DHT22;8661;45.700;4.880;2024-01-15T08:51:05;4.70;99.90
17092;DHT22;8661;45.700;4.880;2024-01-15T08:53:33;5.00;99.90
17092;DHT22;8661;45.700;4.880;2024-01-15T08:56:00;5.10;99.90
17092;DHT22;8661;45.700;4.880;2024-01-15T08:58:28;5.10;99.90
17092;DHT22;8661;45.700;4.880;2024-01-15T09:00:55;5.00;99.90
17092;DHT22;8661;45.700;4.880;2024-01-15T09:03:22;5.00;99.90
17092;DHT22;8661;45.700;4.880;2024-01-15T09:05:49;5.00;99.90
17092;DHT22;8661;45.700;4.880;2024-01-15T09:08:16;5.10;99.90
17092;DHT22;8661;45.700;4.880;2024-01-15T09:10:43;5.10;99.90
17092;DHT22;8661;45.700;4.880;2024-01-15T09:13:11;5.20;99.90
17092;DHT22;8661;45.700;4.880;2024-01-15T09:15:39;5.30;99.90
17092;DHT22;8661;45.700;4.880;2024-01-15T09:18:06;5.40;99.90
17092;DHT22;8661;45.700;4.880;2024-01-15T09:20:33;5.30;99.90
17092;DHT22;8661;45.700;4.880;2024-01-15T09:23:00;5.30;99.90
17092;DHT22;8661;45.700;4.880;2024-01-15T09:25:27;5.20;99.90
17092;DHT22;8661;45.700;4.880;2024-01-15T09:27:54;5.10;99.90
17092;DHT22;8661;45.700;4.880;2024-01-15T09:30:21;5.00;99.90
17092;DHT22;8661;45.700;4.880;2024-01-15T09:32:49;5.00;99.90
17092;DHT22;8661;45.700;4.880;2024-01-15T09:35:16;5.00;99.90
17092;DHT22;8661;45.700;4.880;2024-01-15T09:37:43;5.00;99.90
17092;DHT22;8661;45.700;4.880;2024-01-15T09:40:13;5.00;99.90
17092;DHT22;8661;45.700;4.880;2024-01-15T09:42:41;5.10;99.90
17092;DHT22;8661;45.700;4.880;2024-01-15T09:45:08;5.00;99.90
17092;DHT22;8661;45.700;4.880;2024-01-15T09:47:36;5.10;99.90
17092;DHT22;8661;45.700;4.880;2024-01-15T09:50:06;5.10;99.90
17092;DHT22;8661;45.700;4.880;2024-01-15T09:52:34;5.10;99.90
17092;DHT22;8661;45.700;4.880;2024-01-15T09:55:03;5.10;99.90
17092;DHT22;8661;45.700;4.880;2024-01-15T09:57:31;5.10;99.90
17092;DHT22;8661;45.700;4.880;2024-01-15T09:59:59;5.10;99.90
17092;DHT22;8661;45.700;4.880;2024-01-15T10:02:29;5.10;99.90
17092;DHT22;8661;45.700;4.880;2024-01-15T10:04:57;5.20;99.90
17092;DHT22;8661;45.700;4.880;2024-01-15T10:07:25;5.20;99.90
17092;DHT22;8661;45.700;4.880;2024-01-15T10:09:53;5.30;99.90
17092;DHT22;8661;45.700;4.880;2024-01-15T10:12:21;5.30;99.90
17092;DHT22;8661;45.700;4.880;2024-01-15T10:14:48;5.30;99.90
17092;DHT22;8661;45.700;4.880;2024-01-15T10:17:16;5.30;99.90
17092;DHT22;8661;45.700;4.880;2024-01-15T10:19:43;5.40;99.90
17092;DHT22;8661;45.700;4.880;2024-01-15T10:22:10;5.40;99.90
17092;DHT22;8661;45.700;4.880;2024-01-15T10:24:40;5.50;99.90
17092;DHT22;8661;45.700;4.880;2024-01-15T10:27:08;5.50;99.90
17092;DHT22;8661;45.700;4.880;2024-01-15T10:29:36;5.40;99.90
17092;DHT22;8661;45.700;4.880;2024-01-15T10:32:05;5.30;99.90
17092;DHT22;8661;45.700;4.880;2024-01-15T10:34:32;5.30;99.90
17092;DHT22;8661;45.700;4.880;2024-01-15T10:37:02;5.40;99.90
17092;DHT22;8661;45.700;4.880;2024-01-15T10:39:29;5.40;99.90
17092;DHT22;8661;45.700;4.880;2024-01-15T10:41:58;5.40;99.90
17092;DHT22;8661;45.700;4.880;2024-01-15T10:44:25;5.40;99.90
17092;DHT22;8661;45.700;4.880;2024-01-15T10:46:52;5.50;99.90
17092;DHT22;8661;45.700;4.880;2024-01-15T10:49:20;5.50;99.90
17092;DHT22;8661;45.700;4.880;2024-01-15T10:51:51;5.60;99.90
17092;DHT22;8661;45.700;4.880;2024-01-15T10:54:19;5.60;99.90
17092;DHT22;8661;45.700;4.880;2024-01-15T10:56:47;5.60;99.90
17092;DHT22;8661;45.700;4.880;2024-01-15T10:59:15;5.60;99.90
17092;DHT22;8661;45.700;4.880;2024-01-15T11:01:43;5.60;99.90
17092;DHT22;8661;45.700;4.880;2024-01-15T11:04:12;5.60;99.90
17092;DHT22;8661;45.700;4.880;2024-01-15T11:06:43;5.60;99.90
17092;DHT22;8661;45.700;4.880;2024-01-15T11:09:11;5.60;99.90
17092;DHT22;8661;45.700;4.880;2024-01-15T11:11:41;5.70;99.90
17092;DHT22;8661;45.700;4.880;2024-01-15T11:14:08;5.70;99.90
17092;DHT22;8661;45.700;4.880;2024-01-15T11:16:56;5.70;99.90
17092;DHT22;8661;45.700;4.880;2024-01-15T11:19:25;5.70;99.90
17092;DHT22;8661;45.700;4.880;2024-01-15T11:21:52;5.60;99.90
17092;DHT22;8661;45.700;4.880;2024-01-15T11:24:36;5.60;99.90
17092;DHT22;8661;45.700;4.880;2024-01-15T11:27:04;5.40;99.90
17092;DHT22;8661;45.700;4.880;2024-01-15T11:29:34;5.40;99.90
17092;DHT22;8661;45.700;4.880;2024-01-15T11:32:07;5.40;99.90
17092;DHT22;8661;45.700;4.880;2024-01-15T11:34:53;5.50;99.90
17092;DHT22;8661;45.700;4.880;2024-01-15T11:37:20;5.50;99.90
17092;DHT22;8661;45.700;4.880;2024-01-15T11:39:51;5.60;99.90
17092;DHT22;8661;45.700;4.880;2024-01-15T11:42:20;5.60;99.90
17092;DHT22;8661;45.700;4.880;2024-01-15T11:44:49;5.70;99.90
17092;DHT22;8661;45.700;4.880;2024-01-15T11:47:33;5.80;99.90
17092;DHT22;8661;45.700;4.880;2024-01-15T11:50:07;5.80;99.90
17092;DHT22;8661;45.700;4.880;2024-01-15T11:52:36;5.90;99.90
17092;DHT22;8661;45.700;4.880;2024-01-15T11:55:12;6.00;99.90
17092;DHT22;8661;45.700;4.880;2024-01-15T11:57:46;6.00;99.90
17092;DHT22;8661;45.700;4.880;2024-01-15T12:00:14;6.10;99.90
17092;DHT22;8661;45.700;4.880;2024-01-15T12:02:44;6.10;99.90
17092;DHT22;8661;45.700;4.880;2024-01-15T12:05:13;6.10;99.90
17092;DHT22;8661;45.700;4.880;2024-01-15T12:07:40;6.00;99.90
17092;DHT22;8661;45.700;4.880;2024-01-15T12:10:10;6.00;99.90
17092;DHT22;8661;45.700;4.880;2024-01-15T12:12:51;5.90;99.90
17092;DHT22;8661;45.700;4.880;2024-01-15T12:15:21;6.00;99.90
17092;DHT22;8661;45.700;4.880;2024-01-15T12:17:49;6.00;99.90
17092;DHT22;8661;45.700;4.880;2024-01-15T12:20:17;6.00;99.90
17092;DHT22;8661;45.700;4.880;2024-01-15T12:22:45;6.00;99.90
17092;DHT22;8661;45.700;4.880;2024-01-15T12:25:12;6.00;99.90
17092;DHT22;8661;45.700;4.880;2024-01-15T12:27:40;5.90;99.90
17092;DHT22;8661;45.700;4.880;2024-01-15T12:30:10;5.90;99.90
17092;DHT22;8661;45.700;4.880;2024-01-15T12:32:37;5.90;99.90
17092;DHT22;8661;45.700;4.880;2024-01-15T12:35:06;5.80;99.90
17092;DHT22;8661;45.700;4.880;2024-01-15T12:37:35;5.90;99.90
17092;DHT22;8661;45.700;4.880;2024-01-15T12:40:02;5.80;99.90
17092;DHT22;8661;45.700;4.880;2024-01-15T12:42:30;5.80;99.90
17092;DHT22;8661;45.700;4.880;2024-01-15T12:44:57;5.80;99.90
17092;DHT22;8661;45.700;4.880;2024-01-15T12:47:24;5.80;99.90
17092;DHT22;8661;45.700;4.880;2024-01-15T12:49:52;5.90;99.90
17092;DHT22;8661;45.700;4.880;2024-01-15T12:52:21;5.80;99.90
17092;DHT22;8661;45.700;4.880;2024-01-15T12:54:49;5.90;99.90
17092;DHT22;8661;45.700;4.880;2024-01-15T12:57:17;5.90;99.90
17092;DHT22;8661;45.700;4.880;2024-01-15T12:59:47;6.00;99.90
17092;DHT22;8661;45.700;4.880;2024-01-15T13:02:14;6.00;99.90
17092;DHT22;8661;45.700;4.880;2024-01-15T13:04:42;6.10;99.90
17092;DHT22;8661;45.700;4.880;2024-01-15T13:07:09;6.10;99.90
17092;DHT22;8661;45.700;4.880;2024-01-15T13:09:37;6.20;99.90
17092;DHT22;8661;45.700;4.880;2024-01-15T13:12:05;6.10;99.90
17092;DHT22;8661;45.700;4.880;2024-01-15T13:14:32;6.10;99.90
17092;DHT22;8661;45.700;4.880;2024-01-15T13:16:59;6.10;99.90
17092;DHT22;8661;45.700;4.880;2024-01-15T13:19:26;6.10;99.90
17092;DHT22;8661;45.700;4.880;2024-01-15T13:21:53;6.10;99.90
17092;DHT22;8661;45.700;4.880;2024-01-15T13:24:21;6.20;99.90
17092;DHT22;8661;45.700;4.880;2024-01-15T13:26:50;6.20;99.90
17092;DHT22;8661;45.700;4.880;2024-01-15T13:29:17;6.20;99.90
17092;DHT22;8661;45.700;4.880;2024-01-15T13:31:44;6.30;99.90
17092;DHT22;8661;45.700;4.880;2024-01-15T13:34:12;6.20;99.90
17092;DHT22;8661;45.700;4.880;2024-01-15T13:36:39;6.20;99.90
17092;DHT22;8661;45.700;4.880;2024-01-15T13:39:06;6.30;99.90
17092;DHT22;8661;45.700;4.880;2024-01-15T13:41:35;6.20;99.90
17092;DHT22;8661;45.700;4.880;2024-01-15T13:44:03;6.20;99.90
17092;DHT22;8661;45.700;4.880;2024-01-15T13:46:30;6.10;99.90
17092;DHT22;8661;45.700;4.880;2024-01-15T13:49:01;6.20;99.90
17092;DHT22;8661;45.700;4.880;2024-01-15T13:51:28;6.00;99.90
17092;DHT22;8661;45.700;4.880;2024-01-15T13:53:55;6.00;99.90
17092;DHT22;8661;45.700;4.880;2024-01-15T13:56:22;6.00;99.90
17092;DHT22;8661;45.700;4.880;2024-01-15T13:58:49;6.00;99.90
17092;DHT22;8661;45.700;4.880;2024-01-15T14:01:18;6.00;99.90
17092;DHT22;8661;45.700;4.880;2024-01-15T14:03:45;6.10;99.90
17092;DHT22;8661;45.700;4.880;2024-01-15T14:06:12;6.00;99.90
17092;DHT22;8661;45.700;4.880;2024-01-15T14:08:39;6.00;99.90
17092;DHT22;8661;45.700;4.880;2024-01-15T14:11:06;6.00;99.90
17092;DHT22;8661;45.700;4.880;2024-01-15T14:13:33;6.00;99.90
17092;DHT22;8661;45.700;4.880;2024-01-15T14:16:00;6.00;99.90
17092;DHT22;8661;45.700;4.880;2024-01-15T14:18:28;6.00;99.90
17092;DHT22;8661;45.700;4.880;2024-01-15T14:20:55;6.00;99.90
17092;DHT22;8661;45.700;4.880;2024-01-15T14:23:22;6.00;99.90
17092;DHT22;8661;45.700;4.880;2024-01-15T14:25:49;6.00;99.90
17092;DHT22;8661;45.700;4.880;2024-01-15T14:28:16;6.00;99.90
17092;DHT22;8661;45.700;4.880;2024-01-15T14:30:43;5.90;99.90
17092;DHT22;8661;45.700;4.880;2024-01-15T14:33:10;5.90;99.90
17092;DHT22;8661;45.700;4.880;2024-01-15T14:35:38;5.90;99.90
17092;DHT22;8661;45.700;4.880;2024-01-15T14:38:05;5.80;99.90
17092;DHT22;8661;45.700;4.880;2024-01-15T14:40:34;5.80;99.90
17092;DHT22;8661;45.700;4.880;2024-01-15T14:43:00;5.80;99.90
17092;DHT22;8661;45.700;4.880;2024-01-15T14:45:27;5.70;99.90
17092;DHT22;8661;45.700;4.880;2024-01-15T14:47:56;5.70;99.90
17092;DHT22;8661;45.700;4.880;2024-01-15T14:50:24;5.80;99.90
17092;DHT22;8661;45.700;4.880;2024-01-15T14:52:52;5.70;99.90
17092;DHT22;8661;45.700;4.880;2024-01-15T14:55:19;5.70;99.90
17092;DHT22;8661;45.700;4.880;2024-01-15T14:57:49;5.70;99.90
17092;DHT22;8661;45.700;4.880;2024-01-15T15:00:16;5.80;99.90
17092;DHT22;8661;45.700;4.880;2024-01-15T15:02:46;5.80;99.90
17092;DHT22;8661;45.700;4.880;2024-01-15T15:05:14;5.80;99.90
17092;DHT22;8661;45.700;4.880;2024-01-15T15:07:42;5.80;99.90
17092;DHT22;8661;45.700;4.880;2024-01-15T15:10:11;5.80;99.90
17092;DHT22;8661;45.700;4.880;2024-01-15T15:12:38;5.80;99.90
17092;DHT22;8661;45.700;4.880;2024-01-15T15:15:06;5.80;99.90
17092;DHT22;8661;45.700;4.880;2024-01-15T15:17:33;5.70;99.90
17092;DHT22;8661;45.700;4.880;2024-01-15T15:20:00;5.70;99.90
17092;DHT22;8661;45.700;4.880;2024-01-15T15:22:29;5.70;99.90
17092;DHT22;8661;45.700;4.880;2024-01-15T15:24:56;5.70;99.90
17092;DHT22;8661;45.700;4.880;2024-01-15T15:27:24;5.70;99.90
17092;DHT22;8661;45.700;4.880;2024-01-15T15:29:52;5.70;99.90
17092;DHT22;8661;45.700;4.880;2024-01-15T15:32:19;5.60;99.90
17092;DHT22;8661;45.700;4.880;2024-01-15T15:34:46;5.60;99.90
17092;DHT22;8661;45.700;4.880;2024-01-15T15:37:13;5.50;99.90
17092;DHT22;8661;45.700;4.880;2024-01-15T15:39:42;5.50;99.90
17092;DHT22;8661;45.700;4.880;2024-01-15T15:42:09;5.50;99.90
17092;DHT22;8661;45.700;4.880;2024-01-15T15:44:37;5.40;99.90
17092;DHT22;8661;45.700;4.880;2024-01-15T15:47:09;5.50;99.90
17092;DHT22;8661;45.700;4.880;2024-01-15T15:49:36;5.50;99.90
17092;DHT22;8661;45.700;4.880;2024-01-15T15:52:03;5.40;99.90
17092;DHT22;8661;45.700;4.880;2024-01-15T15:54:30;5.40;99.90
17092;DHT22;8661;45.700;4.880;2024-01-15T15:56:57;5.40;99.90
17092;DHT22;8661;45.700;4.880;2024-01-15T15:59:24;5.40;99.90
17092;DHT22;8661;45.700;4.880;2024-01-15T16:01:52;5.40;99.90
17092;DHT22;8661;45.700;4.880;2024-01-15T16:04:19;5.40;99.90